Time;durP1;ratioP1;P1;durP2;ratioP2;P2;SDS_P1;SDS_P2;PMS_P1;PMS_P2;Temp;Humidity;BMP_temperature;BMP_pressure;BME280_temperature;BME280_humidity;BME280_pressure;Samples;Min_cycle;Max_cycle;Signal;HPM_P1;HPM_P2
2021/05/28 00:00:58;;;;;;;1.90;1.50;;;24.90;62.30;;;;;;5036307;28;20457;-89
2021/05/28 00:03:25;;;;;;;1.77;1.67;;;24.90;61.80;;;;;;5035221;28;20441;-89
2021/05/28 00:05:51;;;;;;;1.70;1.60;;;24.90;61.70;;;;;;5036037;28;20453;-89
2021/05/28 00:08:18;;;;;;;1.50;1.40;;;24.90;61.70;;;;;;5036158;28;20455;-88
2021/05/28 00:10:45;;;;;;;2.10;1.80;;;25.00;61.80;;;;;;5035991;28;20481;-90
2021/05/28 00:13:12;;;;;;;1.93;1.53;;;24.90;61.80;;;;;;5036080;28;20479;-90
2021/05/28 00:15:39;;;;;;;1.70;1.60;;;24.90;61.80;;;;;;5035400;28;20476;-90
2021/05/28 00:18:05;;;;;;;1.63;1.53;;;24.90;61.80;;;;;;5035727;28;20859;-89
2021/05/28 00:20:32;;;;;;;1.87;1.50;;;24.90;61.80;;;;;;5035815;28;20505;-90
2021/05/28 00:22:58;;;;;;;1.63;1.53;;;24.90;61.80;;;;;;5036091;28;20440;-89
2021/05/28 00:25:24;;;;;;;1.83;1.73;;;25.00;61.90;;;;;;5035752;28;20484;-90
2021/05/28 00:27:51;;;;;;;2.03;1.93;;;24.90;61.80;;;;;;5035749;28;20478;-89
2021/05/28 00:30:18;;;;;;;1.60;1.50;;;24.90;61.90;;;;;;5035760;28;20440;-90
2021/05/28 00:32:45;;;;;;;2.00;1.80;;;24.80;61.80;;;;;;5035384;28;20468;-90
2021/05/28 00:35:12;;;;;;;1.60;1.50;;;24.90;61.90;;;;;;5035683;28;20453;-89
2021/05/28 00:37:38;;;;;;;2.47;2.10;;;24.90;61.90;;;;;;5035454;28;20446;-90
2021/05/28 00:40:06;;;;;;;1.47;1.37;;;24.90;62.00;;;;;;5035294;28;20445;-89
2021/05/28 00:42:33;;;;;;;1.80;1.40;;;24.90;61.90;;;;;;5035611;28;20579;-90
2021/05/28 00:45:04;;;;;;;1.53;1.40;;;24.90;61.90;;;;;;5035533;28;20924;-89
2021/05/28 00:47:31;;;;;;;1.43;1.33;;;24.90;61.90;;;;;;5035550;28;20449;-89
2021/05/28 00:49:57;;;;;;;1.57;1.47;;;24.90;61.90;;;;;;5035596;28;20468;-90
2021/05/28 00:52:24;;;;;;;1.47;1.37;;;24.90;61.90;;;;;;5035338;28;20457;-90
2021/05/28 00:54:51;;;;;;;1.60;1.50;;;24.80;61.90;;;;;;5035301;28;20916;-90
2021/05/28 00:57:19;;;;;;;1.40;1.30;;;24.80;61.90;;;;;;5035096;28;20458;-89
2021/05/28 00:59:48;;;;;;;1.57;1.47;;;24.90;62.10;;;;;;5035984;28;20447;-89
2021/05/28 01:02:16;;;;;;;1.50;1.30;;;24.80;61.90;;;;;;5035470;28;20453;-90
2021/05/28 01:04:42;;;;;;;1.90;1.73;;;24.80;61.90;;;;;;5035133;28;20486;-89
2021/05/28 01:07:08;;;;;;;1.53;1.43;;;24.80;61.90;;;;;;5035001;28;20456;-91
2021/05/28 01:09:34;;;;;;;1.30;1.20;;;24.80;61.90;;;;;;5034757;28;20435;-90
2021/05/28 01:12:01;;;;;;;1.63;1.53;;;24.80;61.90;;;;;;5035174;28;20446;-89
2021/05/28 01:14:27;;;;;;;1.47;1.37;;;24.80;61.90;;;;;;5034604;28;20844;-89
2021/05/28 01:16:54;;;;;;;1.43;1.27;;;24.80;62.00;;;;;;5035008;28;20525;-90
2021/05/28 01:19:21;;;;;;;1.30;1.20;;;24.80;62.00;;;;;;5035157;28;20468;-90
2021/05/28 01:21:47;;;;;;;1.40;1.30;;;24.80;61.90;;;;;;5034884;28;20446;-90
2021/05/28 01:24:15;;;;;;;1.60;1.13;;;24.80;61.90;;;;;;5034696;28;20496;-90
2021/05/28 01:26:41;;;;;;;2.13;1.30;;;24.80;61.90;;;;;;5034778;28;20446;-90
2021/05/28 01:29:08;;;;;;;1.60;1.47;;;24.80;62.00;;;;;;5034802;28;20669;-90
2021/05/28 01:31:35;;;;;;;1.37;1.27;;;24.80;62.40;;;;;;5034729;28;20449;-89
2021/05/28 01:34:02;;;;;;;1.40;1.30;;;24.80;61.90;;;;;;5034635;28;20440;-89
2021/05/28 01:36:29;;;;;;;1.53;1.43;;;24.80;61.90;;;;;;5034622;28;20529;-90
2021/05/28 01:38:55;;;;;;;1.30;1.20;;;24.80;61.90;;;;;;5034317;28;20454;-89
2021/05/28 01:41:28;;;;;;;1.53;1.40;;;24.80;61.90;;;;;;5034285;28;20536;-89
2021/05/28 01:43:54;;;;;;;1.47;1.33;;;24.80;61.90;;;;;;5034300;28;20555;-89
2021/05/28 01:46:21;;;;;;;1.43;1.33;;;24.80;61.90;;;;;;5034406;28;20446;-90
2021/05/28 01:48:47;;;;;;;1.20;1.10;;;24.80;61.90;;;;;;5034272;28;20563;-89
2021/05/28 01:51:13;;;;;;;1.23;1.13;;;24.80;62.00;;;;;;5034290;28;20473;-90
2021/05/28 01:53:39;;;;;;;1.63;1.53;;;24.70;61.80;;;;;;5034059;28;20496;-89
2021/05/28 01:56:06;;;;;;;1.47;1.37;;;24.80;61.90;;;;;;5034231;28;20547;-90
2021/05/28 01:58:33;;;;;;;1.50;1.40;;;24.80;61.80;;;;;;5034092;28;20615;-89
2021/05/28 02:01:00;;;;;;;1.37;1.27;;;24.80;61.90;;;;;;5034223;28;20814;-90
2021/05/28 02:03:26;;;;;;;1.10;1.00;;;24.80;61.80;;;;;;5033777;28;20459;-89
2021/05/28 02:05:53;;;;;;;1.57;1.10;;;24.80;61.80;;;;;;5034145;28;20559;-89
2021/05/28 02:08:19;;;;;;;1.33;1.23;;;24.80;61.70;;;;;;5033698;28;20945;-90
2021/05/28 02:10:46;;;;;;;2.00;1.80;;;24.70;61.70;;;;;;5033774;28;20477;-90
2021/05/28 02:13:12;;;;;;;1.50;1.30;;;24.80;61.70;;;;;;5033946;28;20562;-89
2021/05/28 02:15:40;;;;;;;1.47;1.37;;;24.70;61.70;;;;;;5033902;28;20445;-90
2021/05/28 02:18:07;;;;;;;1.50;1.40;;;24.80;61.70;;;;;;5033785;28;20449;-90
2021/05/28 02:20:33;;;;;;;1.20;1.10;;;24.80;61.70;;;;;;5033549;28;20453;-90
2021/05/28 02:23:00;;;;;;;1.37;1.27;;;24.80;61.60;;;;;;5033830;28;20495;-89
2021/05/28 02:25:26;;;;;;;1.43;1.33;;;24.70;61.60;;;;;;5033294;28;20572;-90
2021/05/28 02:27:52;;;;;;;1.20;1.10;;;24.80;61.60;;;;;;5033732;28;20443;-90
2021/05/28 02:30:19;;;;;;;1.20;1.10;;;24.70;61.40;;;;;;5033491;28;20443;-89
2021/05/28 02:32:46;;;;;;;1.60;1.50;;;24.70;61.40;;;;;;5033716;28;20454;-90
2021/05/28 02:35:13;;;;;;;1.20;1.10;;;24.80;61.40;;;;;;5034147;28;20450;-90
2021/05/28 02:37:40;;;;;;;1.20;1.10;;;24.80;61.40;;;;;;5033982;28;20449;-88
2021/05/28 02:40:08;;;;;;;1.30;1.20;;;24.80;61.40;;;;;;5035606;28;20848;-90
2021/05/28 02:42:35;;;;;;;1.23;1.13;;;24.80;61.40;;;;;;5035755;28;20474;-90
2021/05/28 02:45:02;;;;;;;1.30;1.20;;;24.80;61.30;;;;;;5035283;28;20488;-89
2021/05/28 02:47:29;;;;;;;1.10;0.87;;;24.80;61.30;;;;;;5034276;28;20450;-90
2021/05/28 02:49:57;;;;;;;1.30;1.10;;;24.80;61.20;;;;;;5034280;28;20936;-89
2021/05/28 02:52:23;;;;;;;1.20;1.07;;;24.80;61.10;;;;;;5033796;28;20870;-90
2021/05/28 02:54:49;;;;;;;1.40;1.30;;;24.80;61.20;;;;;;5033580;28;20444;-89
2021/05/28 02:57:16;;;;;;;1.50;1.40;;;24.80;61.00;;;;;;5033437;28;20449;-89
2021/05/28 02:59:42;;;;;;;1.17;1.07;;;24.90;60.90;;;;;;5033566;28;20442;-90
2021/05/28 03:02:08;;;;;;;1.20;1.00;;;24.80;60.70;;;;;;5033438;28;21031;-90
2021/05/28 03:04:35;;;;;;;1.10;0.90;;;24.90;60.90;;;;;;5033149;28;20583;-90
2021/05/28 03:07:03;;;;;;;1.20;1.10;;;24.90;60.80;;;;;;5033720;28;20452;-89
2021/05/28 03:09:29;;;;;;;1.10;0.90;;;24.90;60.70;;;;;;5033634;28;20453;-90
2021/05/28 03:11:56;;;;;;;1.23;0.90;;;24.90;60.80;;;;;;5033220;28;20472;-90
2021/05/28 03:14:22;;;;;;;1.30;1.20;;;24.90;60.60;;;;;;5033242;28;20465;-89
2021/05/28 03:16:48;;;;;;;1.53;1.20;;;24.90;60.70;;;;;;5033459;28;20801;-89
2021/05/28 03:19:20;;;;;;;1.30;1.10;;;24.90;60.50;;;;;;5033380;28;20444;-90
2021/05/28 03:24:44;;;;;;;1.33;0.90;;;25.00;60.40;;;;;;5011398;28;20560;-89
2021/05/28 03:27:11;;;;;;;1.30;1.20;;;24.90;60.20;;;;;;5027665;28;20458;-89
2021/05/28 03:29:38;;;;;;;1.43;1.33;;;25.00;60.30;;;;;;5033329;28;20849;-90
2021/05/28 03:32:05;;;;;;;1.53;1.20;;;25.00;60.20;;;;;;5032996;28;20451;-90
2021/05/28 03:34:32;;;;;;;1.20;1.03;;;25.00;60.40;;;;;;5033171;28;20446;-90
2021/05/28 03:36:59;;;;;;;1.67;1.00;;;24.90;60.20;;;;;;5016612;28;20446;-90
2021/05/28 03:39:25;;;;;;;1.10;0.90;;;25.00;60.20;;;;;;5037148;28;20449;-90
2021/05/28 03:41:53;;;;;;;1.30;1.17;;;25.00;60.30;;;;;;5036820;28;20782;-90
2021/05/28 03:44:19;;;;;;;1.27;1.17;;;25.00;60.00;;;;;;5036315;28;20500;-89
2021/05/28 03:46:45;;;;;;;1.20;1.10;;;25.00;60.00;;;;;;5036645;28;20441;-90
2021/05/28 03:49:12;;;;;;;1.10;0.97;;;25.00;60.00;;;;;;5036594;28;20440;-90
2021/05/28 03:51:38;;;;;;;1.30;1.20;;;25.00;60.20;;;;;;5036444;28;20959;-90
2021/05/28 03:54:05;;;;;;;1.00;0.80;;;25.00;60.00;;;;;;5019003;28;20460;-90
2021/05/28 03:56:31;;;;;;;1.20;1.03;;;25.00;60.00;;;;;;5036796;28;20456;-85
2021/05/28 03:58:58;;;;;;;2.37;1.20;;;25.00;60.00;;;;;;5036338;28;20447;-85
2021/05/28 04:01:25;;;;;;;1.23;1.13;;;25.10;58.80;;;;;;5036636;28;20439;-90
2021/05/28 04:03:51;;;;;;;1.13;1.03;;;25.00;58.50;;;;;;5037009;28;20449;-90
2021/05/28 04:06:18;;;;;;;2.53;1.53;;;25.00;59.00;;;;;;5037319;28;20445;-89
2021/05/28 04:08:44;;;;;;;2.30;1.93;;;25.00;58.60;;;;;;5036802;28;20541;-91
2021/05/28 04:11:11;;;;;;;1.50;1.00;;;25.00;58.50;;;;;;5036257;28;20473;-90
2021/05/28 04:13:38;;;;;;;2.07;1.37;;;25.00;58.80;;;;;;5036866;28;20994;-95
2021/05/28 04:16:05;;;;;;;2.00;1.87;;;25.00;59.40;;;;;;5037837;28;21012;-96
2021/05/28 04:18:31;;;;;;;3.43;1.20;;;25.00;59.40;;;;;;5037353;28;20453;-95
2021/05/28 04:20:58;;;;;;;1.87;1.50;;;25.00;59.40;;;;;;5037752;28;20442;-95
2021/05/28 04:23:24;;;;;;;1.80;1.70;;;25.00;59.60;;;;;;5037081;28;20449;-95
2021/05/28 04:25:51;;;;;;;2.73;2.03;;;25.00;59.70;;;;;;5037989;28;20481;-93
2021/05/28 04:28:17;;;;;;;2.20;1.60;;;25.00;59.70;;;;;;5037343;28;20496;-96
2021/05/28 04:30:45;;;;;;;2.60;2.20;;;25.00;59.80;;;;;;5036862;28;20456;-95
2021/05/28 04:33:12;;;;;;;1.70;1.60;;;25.10;59.80;;;;;;5036100;28;20937;-94
2021/05/28 04:35:38;;;;;;;3.80;1.70;;;25.10;59.80;;;;;;5036414;28;20521;-94
2021/05/28 04:38:05;;;;;;;2.70;1.53;;;25.10;59.90;;;;;;5036387;28;20544;-91
2021/05/28 04:40:31;;;;;;;1.80;1.70;;;25.10;59.90;;;;;;5036407;28;20590;-95
2021/05/28 04:42:58;;;;;;;2.00;1.60;;;25.10;59.90;;;;;;5036301;28;20485;-95
2021/05/28 04:45:26;;;;;;;1.80;1.70;;;25.20;60.00;;;;;;5036142;28;20493;-94
2021/05/28 04:47:53;;;;;;;4.87;1.90;;;25.10;60.00;;;;;;5036141;28;20441;-94
2021/05/28 04:50:20;;;;;;;2.10;1.90;;;25.20;60.00;;;;;;5035572;28;20545;-93
2021/05/28 04:52:47;;;;;;;2.50;2.30;;;25.20;60.00;;;;;;5036228;28;20484;-95
2021/05/28 04:55:14;;;;;;;2.37;2.03;;;25.20;60.10;;;;;;5035821;28;20449;-95
2021/05/28 04:57:41;;;;;;;2.23;1.93;;;25.20;60.00;;;;;;5035880;28;20955;-94
2021/05/28 05:00:09;;;;;;;2.80;2.60;;;25.20;60.00;;;;;;5035848;28;20449;-95
2021/05/28 05:02:35;;;;;;;3.43;2.50;;;25.20;60.10;;;;;;5035743;28;20459;-89
2021/05/28 05:05:02;;;;;;;2.47;2.27;;;25.20;60.10;;;;;;5035900;28;20489;-94
2021/05/28 05:07:29;;;;;;;2.40;2.20;;;25.20;60.20;;;;;;5035292;28;20453;-94
2021/05/28 05:09:55;;;;;;;2.80;2.20;;;25.20;60.20;;;;;;5034969;28;20474;-89
2021/05/28 05:12:21;;;;;;;1.90;1.80;;;25.20;60.20;;;;;;5035344;28;20437;-94
2021/05/28 05:14:48;;;;;;;2.40;2.20;;;25.20;60.20;;;;;;5035924;28;20532;-94
2021/05/28 05:17:14;;;;;;;13.00;8.87;;;25.20;60.40;;;;;;5036282;28;20947;-94
2021/05/28 05:19:40;;;;;;;8.07;6.53;;;25.20;59.10;;;;;;5035273;28;20442;-93
2021/05/28 05:22:07;;;;;;;5.80;3.90;;;25.20;59.00;;;;;;5035437;28;20460;-94
2021/05/28 05:24:34;;;;;;;3.30;3.00;;;25.10;59.40;;;;;;5035026;28;20474;-90
2021/05/28 05:27:00;;;;;;;5.23;3.50;;;25.10;59.80;;;;;;5035141;28;20453;-93
2021/05/28 05:29:26;;;;;;;3.27;2.97;;;25.10;60.10;;;;;;5035205;28;20506;-93
2021/05/28 05:31:53;;;;;;;4.07;3.70;;;25.10;60.20;;;;;;5035524;28;20445;-90
2021/05/28 05:34:20;;;;;;;3.70;3.23;;;25.10;60.20;;;;;;5035428;28;20464;-92
2021/05/28 05:36:46;;;;;;;3.70;3.40;;;25.10;60.30;;;;;;5035248;28;20475;-91
2021/05/28 05:39:13;;;;;;;5.53;4.57;;;25.10;60.30;;;;;;5035159;28;20960;-93
2021/05/28 05:41:40;;;;;;;4.23;3.87;;;25.10;60.10;;;;;;5035197;28;20548;-91
2021/05/28 05:44:07;;;;;;;4.33;3.87;;;25.10;60.20;;;;;;5034606;28;20538;-86
2021/05/28 05:46:33;;;;;;;4.87;3.00;;;25.20;60.20;;;;;;5034791;28;20468;-92
2021/05/28 05:49:00;;;;;;;5.60;3.80;;;25.20;60.10;;;;;;5034729;28;20556;-91
2021/05/28 05:51:26;;;;;;;5.97;3.60;;;25.10;60.20;;;;;;5034451;28;20492;-90
2021/05/28 05:53:53;;;;;;;3.30;3.00;;;25.10;60.30;;;;;;5034399;28;20931;-91
2021/05/28 05:56:19;;;;;;;4.30;3.90;;;25.10;60.40;;;;;;5034593;28;20500;-91
2021/05/28 05:58:47;;;;;;;5.43;3.70;;;25.30;60.50;;;;;;5034422;28;20446;-90
2021/05/28 06:01:13;;;;;;;3.97;3.57;;;25.10;60.30;;;;;;5033585;28;20445;-92
2021/05/28 06:03:39;;;;;;;4.40;3.37;;;25.10;60.30;;;;;;5034398;28;20460;-89
2021/05/28 06:06:06;;;;;;;3.90;3.43;;;25.10;60.30;;;;;;5034553;28;20492;-89
2021/05/28 06:08:32;;;;;;;4.97;4.33;;;25.10;60.40;;;;;;5034224;28;20495;-91
2021/05/28 06:10:59;;;;;;;4.13;3.77;;;25.10;60.40;;;;;;5034065;28;20473;-89
2021/05/28 06:13:25;;;;;;;4.70;4.30;;;25.10;60.40;;;;;;5034148;28;20477;-92
2021/05/28 06:15:53;;;;;;;3.50;3.13;;;25.10;60.40;;;;;;5033816;28;20548;-92
2021/05/28 06:18:19;;;;;;;7.23;4.10;;;25.10;60.50;;;;;;5033835;28;20449;-89
2021/05/28 06:20:45;;;;;;;3.53;3.23;;;25.10;60.50;;;;;;5034117;28;20764;-89
2021/05/28 06:23:12;;;;;;;4.40;4.00;;;25.10;60.40;;;;;;5034252;28;20551;-91
2021/05/28 06:25:41;;;;;;;3.60;3.30;;;25.10;60.60;;;;;;5033775;28;20486;-92
2021/05/28 06:28:08;;;;;;;4.20;3.80;;;25.10;60.50;;;;;;5034176;28;20453;-93
2021/05/28 06:30:34;;;;;;;3.73;3.43;;;25.10;60.60;;;;;;5034201;28;20446;-90
2021/05/28 06:33:02;;;;;;;5.00;4.50;;;25.10;60.60;;;;;;5033988;28;20450;-91
2021/05/28 06:35:29;;;;;;;4.30;3.90;;;25.10;60.60;;;;;;5034208;28;20882;-92
2021/05/28 06:37:55;;;;;;;4.40;3.30;;;25.10;60.60;;;;;;5033817;28;20968;-91
2021/05/28 06:40:22;;;;;;;4.03;3.73;;;25.10;60.70;;;;;;5033874;28;20548;-92
2021/05/28 06:42:48;;;;;;;8.20;3.60;;;25.10;60.70;;;;;;5034035;28;20552;-90
2021/05/28 06:45:17;;;;;;;4.57;4.17;;;25.10;60.60;;;;;;5033555;28;20492;-92
2021/05/28 06:47:43;;;;;;;4.00;3.70;;;25.10;60.70;;;;;;5033924;28;20545;-91
2021/05/28 06:50:11;;;;;;;3.93;3.63;;;25.20;60.80;;;;;;5033799;28;20456;-91
2021/05/28 06:52:38;;;;;;;4.73;4.33;;;25.10;60.70;;;;;;5033361;28;20444;-92
2021/05/28 06:55:05;;;;;;;4.57;4.17;;;25.00;60.70;;;;;;5033939;28;20460;-92
2021/05/28 06:57:31;;;;;;;4.90;4.50;;;25.10;60.70;;;;;;5033675;28;20453;-91
2021/05/28 06:59:59;;;;;;;4.60;4.20;;;25.20;60.80;;;;;;5034337;28;20983;-89
2021/05/28 07:02:25;;;;;;;4.10;3.70;;;25.00;61.50;;;;;;5034168;28;20449;-92
2021/05/28 07:04:52;;;;;;;4.20;3.90;;;25.00;60.80;;;;;;5033463;28;20583;-92
2021/05/28 07:07:19;;;;;;;4.03;3.73;;;25.00;60.80;;;;;;5033730;28;20446;-89
2021/05/28 07:09:46;;;;;;;4.20;3.60;;;25.00;60.70;;;;;;5033338;28;20868;-91
2021/05/28 07:12:12;;;;;;;4.40;4.10;;;25.10;60.80;;;;;;5035225;28;20449;-91
2021/05/28 07:14:39;;;;;;;4.80;3.83;;;25.00;60.80;;;;;;5037369;28;20443;-89
2021/05/28 07:17:05;;;;;;;4.73;4.33;;;25.00;60.70;;;;;;5020935;28;20802;-91
2021/05/28 07:19:32;;;;;;;4.63;4.20;;;25.00;60.80;;;;;;5038796;28;20454;-89
2021/05/28 07:21:58;;;;;;;4.70;4.30;;;25.10;60.80;;;;;;5037611;28;20445;-92
2021/05/28 07:24:25;;;;;;;4.97;4.50;;;25.00;60.80;;;;;;5037491;28;20480;-92
2021/05/28 07:26:52;;;;;;;5.87;5.37;;;25.00;60.70;;;;;;5037547;28;20502;-92
2021/05/28 07:29:18;;;;;;;5.03;4.63;;;25.00;60.70;;;;;;5051301;28;20520;-89
2021/05/28 07:31:45;;;;;;;5.23;4.83;;;25.00;60.80;;;;;;5059123;28;20447;-89
2021/05/28 07:34:11;;;;;;;5.60;5.10;;;25.00;60.80;;;;;;5058732;28;20483;-88
2021/05/28 07:36:37;;;;;;;4.33;3.97;;;25.00;61.60;;;;;;5049970;28;20442;-92
2021/05/28 07:39:05;;;;;;;4.73;4.33;;;25.00;60.70;;;;;;5042213;28;20452;-91
2021/05/28 07:41:32;;;;;;;4.47;4.17;;;25.00;60.70;;;;;;5042180;28;20810;-89
2021/05/28 07:43:59;;;;;;;4.97;4.67;;;25.00;60.80;;;;;;5037953;28;20472;-92
2021/05/28 07:46:25;;;;;;;4.37;4.07;;;25.20;60.90;;;;;;5037863;28;20448;-90
2021/05/28 07:48:51;;;;;;;5.23;4.73;;;25.00;60.80;;;;;;5038012;28;20453;-92
2021/05/28 07:51:18;;;;;;;4.63;4.23;;;25.00;60.80;;;;;;5037300;28;20449;-92
2021/05/28 07:53:44;;;;;;;4.80;4.40;;;25.00;60.90;;;;;;5037150;28;20878;-92
2021/05/28 07:56:10;;;;;;;4.83;4.43;;;25.00;60.80;;;;;;5037299;28;20454;-92
2021/05/28 07:58:38;;;;;;;4.83;4.53;;;25.00;60.80;;;;;;5036730;28;20519;-91
2021/05/28 08:01:05;;;;;;;5.37;4.97;;;25.00;60.80;;;;;;5036496;28;20541;-90
2021/05/28 08:03:31;;;;;;;5.00;4.60;;;25.00;60.80;;;;;;5036362;28;20461;-91
2021/05/28 08:05:57;;;;;;;5.10;4.70;;;25.00;60.80;;;;;;5036664;28;20840;-92
2021/05/28 08:08:27;;;;;;;5.03;4.63;;;25.00;60.80;;;;;;5036298;28;20449;-92
2021/05/28 08:10:53;;;;;;;4.77;4.40;;;25.00;60.80;;;;;;5036319;28;20481;-92
2021/05/28 08:13:20;;;;;;;4.93;4.53;;;25.00;60.90;;;;;;5036439;28;20464;-92
2021/05/28 08:15:48;;;;;;;5.20;4.80;;;25.00;60.90;;;;;;5037430;28;20920;-89
2021/05/28 08:18:15;;;;;;;4.63;4.20;;;25.00;60.80;;;;;;5036747;28;20446;-92
2021/05/28 08:20:42;;;;;;;5.00;4.60;;;25.00;60.80;;;;;;5036518;28;20494;-91
2021/05/28 08:23:08;;;;;;;4.40;4.10;;;25.00;60.80;;;;;;5035604;28;20983;-91
2021/05/28 08:25:35;;;;;;;5.03;4.63;;;25.00;60.90;;;;;;5035861;28;20488;-92
2021/05/28 08:28:01;;;;;;;4.80;4.40;;;25.00;60.90;;;;;;5036157;28;20445;-89
2021/05/28 08:30:28;;;;;;;5.10;4.70;;;25.10;60.90;;;;;;5035754;28;20450;-92
2021/05/28 08:32:55;;;;;;;4.83;4.43;;;25.10;60.90;;;;;;5036308;28;20588;-92
2021/05/28 08:35:22;;;;;;;5.27;4.80;;;25.10;60.90;;;;;;5035919;28;20448;-92
2021/05/28 08:37:48;;;;;;;5.20;4.77;;;25.10;60.90;;;;;;5036112;28;20495;-89
2021/05/28 08:40:16;;;;;;;5.57;5.07;;;25.10;61.00;;;;;;5036218;28;20459;-91
2021/05/28 08:42:43;;;;;;;4.73;4.33;;;25.10;61.00;;;;;;5035976;28;20460;-92
2021/05/28 08:45:10;;;;;;;5.67;5.27;;;25.10;61.10;;;;;;5035907;28;20495;-91
2021/05/28 08:47:40;;;;;;;5.33;4.87;;;25.10;61.00;;;;;;5035657;28;21023;-92
2021/05/28 08:50:09;;;;;;;4.70;4.30;;;25.20;61.20;;;;;;5035944;28;20442;-91
2021/05/28 08:52:35;;;;;;;4.53;4.23;;;25.20;61.20;;;;;;5036120;28;20531;-91
2021/05/28 08:55:02;;;;;;;4.63;4.07;;;25.20;61.30;;;;;;5035722;28;20445;-91
2021/05/28 08:57:28;;;;;;;4.50;4.20;;;25.20;61.30;;;;;;5035892;28;20452;-91
2021/05/28 08:59:54;;;;;;;4.93;4.53;;;25.20;61.20;;;;;;5035970;28;20499;-92
2021/05/28 09:02:41;;;;;;;5.30;4.90;;;25.30;61.20;;;;;;5035716;28;20446;-92
2021/05/28 09:05:12;;;;;;;4.67;4.37;;;25.30;61.10;;;;;;5027871;28;20486;-92
2021/05/28 09:07:39;;;;;;;4.30;4.00;;;25.30;61.20;;;;;;5035968;28;20443;-91
2021/05/28 09:10:31;;;;;;;4.60;4.20;;;25.30;61.20;;;;;;5035319;28;20563;-91
2021/05/28 09:13:08;;;;;;;4.60;4.30;;;25.40;61.20;;;;;;5035578;28;20560;-92
2021/05/28 09:15:34;;;;;;;4.97;4.57;;;25.40;62.10;;;;;;5036105;28;20479;-88
2021/05/28 09:18:01;;;;;;;4.77;4.37;;;25.40;61.30;;;;;;5035695;28;20810;-92
2021/05/28 09:20:28;;;;;;;4.40;4.10;;;25.40;61.30;;;;;;5035402;28;20456;-91
2021/05/28 09:23:17;;;;;;;4.70;4.30;;;25.40;61.30;;;;;;5035626;28;20450;-92
2021/05/28 09:25:58;;;;;;;5.13;4.73;;;25.50;61.30;;;;;;5035289;28;20474;-92
2021/05/28 09:28:26;;;;;;;4.40;4.00;;;25.50;61.30;;;;;;5034931;28;21018;-91
2021/05/28 09:30:57;;;;;;;5.07;4.67;;;25.50;61.40;;;;;;5035449;28;20450;-92
2021/05/28 09:33:25;;;;;;;4.87;4.47;;;25.50;61.30;;;;;;5035055;28;20442;-93
2021/05/28 09:35:53;;;;;;;5.00;4.60;;;25.50;61.30;;;;;;5034777;28;20965;-91
2021/05/28 09:38:23;;;;;;;4.97;4.57;;;25.50;61.30;;;;;;5034814;28;20440;-92
2021/05/28 09:40:50;;;;;;;5.03;4.53;;;25.60;61.30;;;;;;5035162;28;20511;-86
2021/05/28 09:43:22;;;;;;;5.13;4.73;;;25.60;61.40;;;;;;5034215;28;20840;-85
2021/05/28 09:45:49;;;;;;;5.80;5.30;;;25.60;59.50;;;;;;5034294;28;20496;-87
2021/05/28 09:48:30;;;;;;;5.60;5.17;;;25.70;59.10;;;;;;5034451;28;20438;-85
2021/05/28 09:50:59;;;;;;;5.63;5.17;;;25.50;58.80;;;;;;5034318;28;20442;-86
2021/05/28 09:53:31;;;;;;;6.30;5.80;;;25.40;58.90;;;;;;5033975;28;20437;-85
2021/05/28 09:56:02;;;;;;;5.23;4.83;;;25.40;59.00;;;;;;5034306;28;20855;-90
2021/05/28 09:58:57;;;;;;;6.23;5.73;;;25.40;59.30;;;;;;5034338;28;20967;-89
2021/05/28 10:01:23;;;;;;;7.37;6.70;;;25.40;59.50;;;;;;5034295;28;20524;-91
2021/05/28 10:04:04;;;;;;;7.83;7.03;;;25.40;59.60;;;;;;5034072;28;20446;-89
2021/05/28 10:06:33;;;;;;;7.93;7.13;;;25.40;59.60;;;;;;5034661;28;20852;-91
2021/05/28 10:09:01;;;;;;;6.90;6.20;;;25.40;59.60;;;;;;5034118;28;20450;-89
2021/05/28 10:11:28;;;;;;;7.47;6.77;;;25.40;59.70;;;;;;5033585;28;20560;-90
2021/05/28 10:13:55;;;;;;;6.67;6.17;;;25.40;59.70;;;;;;5033640;28;20473;-89
2021/05/28 10:16:22;;;;;;;7.00;6.43;;;25.30;59.80;;;;;;5033933;28;20806;-89
2021/05/28 10:18:49;;;;;;;6.63;6.07;;;25.30;60.00;;;;;;5034136;28;20813;-89
2021/05/28 10:21:16;;;;;;;7.70;6.13;;;25.40;60.00;;;;;;5034118;28;20442;-89
2021/05/28 10:23:44;;;;;;;13.13;6.27;;;25.50;60.00;;;;;;5034194;28;20583;-89
2021/05/28 10:26:12;;;;;;;5.97;5.47;;;25.50;60.10;;;;;;5033687;28;20481;-89
2021/05/28 10:28:43;;;;;;;6.07;5.57;;;25.50;60.20;;;;;;5033833;28;20464;-90
2021/05/28 10:31:10;;;;;;;5.70;5.30;;;25.50;60.20;;;;;;5033480;28;20434;-90
2021/05/28 10:33:42;;;;;;;6.20;5.70;;;25.60;60.10;;;;;;5033744;28;20438;-89
2021/05/28 10:36:10;;;;;;;6.23;5.63;;;25.60;60.10;;;;;;5033586;28;20933;-89
2021/05/28 10:38:58;;;;;;;6.70;5.97;;;25.60;60.30;;;;;;5033680;28;20481;-89
2021/05/28 10:41:32;;;;;;;6.43;5.93;;;25.70;60.30;;;;;;5033356;28;20431;-89
2021/05/28 10:44:07;;;;;;;5.90;5.40;;;25.80;60.40;;;;;;5033276;28;20973;-90
2021/05/28 10:46:34;;;;;;;5.93;5.07;;;25.80;60.40;;;;;;5032828;28;20904;-89
2021/05/28 10:49:13;;;;;;;5.33;4.93;;;25.80;60.40;;;;;;5033564;28;20450;-89
2021/05/28 10:51:59;;;;;;;6.07;5.57;;;25.90;60.40;;;;;;5033435;28;20458;-89
2021/05/28 10:54:27;;;;;;;4.93;4.53;;;25.90;60.40;;;;;;5033567;28;20450;-89
2021/05/28 10:56:55;;;;;;;5.57;5.17;;;25.90;60.50;;;;;;5033194;28;20442;-89
2021/05/28 10:59:22;;;;;;;6.13;5.63;;;25.90;60.50;;;;;;5033234;28;20488;-90
2021/05/28 11:01:51;;;;;;;5.10;4.70;;;26.00;60.60;;;;;;5032879;28;20942;-89
2021/05/28 11:04:23;;;;;;;6.27;4.53;;;26.00;60.60;;;;;;5033165;28;20435;-89
2021/05/28 11:07:16;;;;;;;5.50;5.10;;;26.00;60.50;;;;;;5033377;28;20545;-89
2021/05/28 11:09:44;;;;;;;5.50;5.10;;;26.10;60.50;;;;;;5023321;28;20962;-89
2021/05/28 11:12:12;;;;;;;5.13;4.80;;;26.10;60.50;;;;;;5033413;28;20489;-89
2021/05/28 11:14:40;;;;;;;5.23;4.83;;;26.10;60.50;;;;;;5033138;28;20449;-88
2021/05/28 11:17:16;;;;;;;5.40;5.00;;;26.20;60.40;;;;;;5032950;28;20808;-89
2021/05/28 11:19:49;;;;;;;5.67;4.93;;;26.20;60.30;;;;;;5033102;28;20446;-88
2021/05/28 11:22:30;;;;;;;5.97;5.37;;;26.20;60.40;;;;;;5033115;28;20430;-89
2021/05/28 11:24:59;;;;;;;5.67;5.07;;;26.20;61.20;;;;;;5033057;28;21047;-88
2021/05/28 11:27:41;;;;;;;5.20;4.70;;;26.20;60.40;;;;;;5033195;28;20454;-88
2021/05/28 11:30:27;;;;;;;4.60;4.30;;;26.20;60.40;;;;;;5033253;28;20443;-88
2021/05/28 11:32:54;;;;;;;5.60;4.30;;;26.20;60.10;;;;;;5033239;28;20437;-90
2021/05/28 11:35:22;;;;;;;5.17;4.70;;;26.20;59.60;;;;;;5033119;28;20449;-89
2021/05/28 11:37:50;;;;;;;12.87;11.70;;;26.10;59.90;;;;;;5033065;28;20515;-89
2021/05/28 11:40:19;;;;;;;62.80;48.20;;;26.20;60.00;;;;;;5032773;28;20454;-89
2021/05/28 11:42:46;;;;;;;33.03;29.50;;;26.20;60.00;;;;;;5032923;28;20555;-89
2021/05/28 11:45:15;;;;;;;92.63;57.50;;;26.20;60.00;;;;;;5032679;28;20492;-89
2021/05/28 11:47:41;;;;;;;82.67;56.43;;;26.20;60.00;;;;;;5032717;28;20447;-90
2021/05/28 11:50:11;;;;;;;98.93;61.13;;;26.40;60.10;;;;;;5032939;28;20442;-89
2021/05/28 11:52:37;;;;;;;103.50;63.90;;;26.30;59.90;;;;;;5032965;28;20445;-89
2021/05/28 11:55:06;;;;;;;92.57;57.80;;;26.40;59.90;;;;;;5033137;28;20446;-89
2021/05/28 11:57:33;;;;;;;87.90;51.17;;;26.30;59.20;;;;;;5032864;28;20490;-89
2021/05/28 12:00:00;;;;;;;71.23;47.37;;;26.30;59.50;;;;;;5035571;28;20511;-89
2021/05/28 12:02:34;;;;;;;75.50;47.23;;;26.20;59.60;;;;;;5036754;28;20443;-89
2021/05/28 12:05:01;;;;;;;72.93;43.83;;;26.20;59.80;;;;;;5036060;28;20488;-89
2021/05/28 12:07:31;;;;;;;67.00;40.17;;;26.10;59.70;;;;;;5036269;28;20441;-90
2021/05/28 12:10:06;;;;;;;58.37;37.60;;;26.10;59.70;;;;;;5036178;28;20470;-87
2021/05/28 12:12:55;;;;;;;51.40;33.90;;;26.10;59.50;;;;;;5036197;28;20466;-89
2021/05/28 12:15:23;;;;;;;45.13;28.13;;;26.10;59.50;;;;;;5035916;28;20454;-90
2021/05/28 12:17:50;;;;;;;40.70;26.20;;;26.10;59.60;;;;;;5036068;28;20438;-89
2021/05/28 12:20:19;;;;;;;35.47;21.00;;;26.10;59.60;;;;;;5036412;28;20458;-89
2021/05/28 12:23:08;;;;;;;34.40;21.57;;;26.10;59.50;;;;;;5037266;28;20450;-89
2021/05/28 12:25:37;;;;;;;25.90;19.97;;;26.30;59.50;;;;;;5039825;28;20474;-89
2021/05/28 12:28:16;;;;;;;34.13;21.40;;;26.20;59.60;;;;;;5041959;28;20520;-87
2021/05/28 12:30:45;;;;;;;23.57;17.77;;;26.20;59.60;;;;;;5040731;28;20493;-89
2021/05/28 12:33:12;;;;;;;27.57;17.37;;;26.20;59.60;;;;;;5040033;28;20808;-89
2021/05/28 12:35:39;;;;;;;22.33;17.37;;;26.20;59.60;;;;;;5039007;28;20446;-89
2021/05/28 12:38:13;;;;;;;23.70;13.97;;;26.20;59.50;;;;;;5037565;28;20447;-89
2021/05/28 12:40:47;;;;;;;23.20;15.43;;;26.20;59.50;;;;;;5036098;28;20447;-89
2021/05/28 12:43:23;;;;;;;27.20;17.57;;;26.10;59.60;;;;;;5036013;28;20526;-89
2021/05/28 12:45:51;;;;;;;19.70;14.60;;;26.10;59.70;;;;;;5035651;28;20514;-89
2021/05/28 12:48:18;;;;;;;21.17;14.20;;;26.10;59.70;;;;;;5035614;28;20442;-88
2021/05/28 12:50:45;;;;;;;20.70;12.80;;;26.10;59.60;;;;;;5035585;28;20442;-89
2021/05/28 12:53:15;;;;;;;19.33;13.77;;;26.10;59.50;;;;;;5035657;28;20468;-89